Time;durP1;ratioP1;P1;durP2;ratioP2;P2;SDS_P1;SDS_P2;PMS_P1;PMS_P2;Temp;Humidity;BMP_temperature;BMP_pressure;BME280_temperature;BME280_humidity;BME280_pressure;Samples;Min_cycle;Max_cycle;Signal;HPM_P1;HPM_P2
2023/09/17 00:00:58;;;;;;;25.40;14.80;;;;;;;-128.00;-1.00;-1.00;105612;1250;1004399;-80
2023/09/17 00:03:44;;;;;;;24.90;13.50;;;;;;;-128.00;-1.00;-1.00;105450;1253;1047039;-80
2023/09/17 00:06:11;;;;;;;19.80;14.00;;;;;;;-128.00;-1.00;-1.00;105597;1253;1005046;-80
2023/09/17 00:08:37;;;;;;;19.50;13.60;;;;;;;-128.00;-1.00;-1.00;105565;1253;1004656;-80
2023/09/17 00:11:04;;;;;;;20.40;14.30;;;;;;;-128.00;-1.00;-1.00;105579;1253;1004313;-80
2023/09/17 00:13:30;;;;;;;20.70;15.40;;;;;;;-128.00;-1.00;-1.00;105278;1253;1005060;-80
2023/09/17 00:15:58;;;;;;;22.00;15.00;;;;;;;-128.00;-1.00;-1.00;105376;1253;1005241;-80
2023/09/17 00:18:24;;;;;;;25.10;14.90;;;;;;;-128.00;-1.00;-1.00;105389;1253;1004928;-80
2023/09/17 00:20:51;;;;;;;21.70;14.40;;;;;;;-128.00;-1.00;-1.00;105560;1252;1003756;-80
2023/09/17 00:23:18;;;;;;;19.40;13.10;;;;;;;-128.00;-1.00;-1.00;105588;1253;1003792;-80
2023/09/17 00:25:44;;;;;;;24.30;15.10;;;;;;;-128.00;-1.00;-1.00;105529;1252;1004404;-80
2023/09/17 00:28:10;;;;;;;23.90;16.20;;;;;;;-128.00;-1.00;-1.00;105566;1252;1004257;-80
2023/09/17 00:30:37;;;;;;;20.80;14.60;;;;;;;-128.00;-1.00;-1.00;105568;1252;1004836;-79
2023/09/17 00:33:04;;;;;;;23.70;14.50;;;;;;;-128.00;-1.00;-1.00;105572;1252;1004465;-80
2023/09/17 00:35:30;;;;;;;21.20;14.00;;;;;;;-128.00;-1.00;-1.00;105569;1252;1003669;-80
2023/09/17 00:37:57;;;;;;;16.20;12.80;;;;;;;-128.00;-1.00;-1.00;105480;1251;1003463;-80
2023/09/17 00:40:28;;;;;;;16.70;13.10;;;;;;;-128.00;-1.00;-1.00;105553;1253;1004685;-80
2023/09/17 00:42:54;;;;;;;17.90;11.60;;;;;;;-128.00;-1.00;-1.00;105394;1253;1047222;-80
2023/09/17 00:45:21;;;;;;;16.30;11.20;;;;;;;-128.00;-1.00;-1.00;105535;1253;1005052;-80
2023/09/17 00:47:48;;;;;;;14.60;11.10;;;;;;;-128.00;-1.00;-1.00;105564;1253;1004850;-80
2023/09/17 00:50:14;;;;;;;13.50;10.30;;;;;;;-128.00;-1.00;-1.00;105597;1251;1004961;-80
2023/09/17 00:52:41;;;;;;;14.50;10.70;;;;;;;-128.00;-1.00;-1.00;105618;1251;1004359;-80
2023/09/17 00:55:07;;;;;;;15.60;11.60;;;;;;;-128.00;-1.00;-1.00;105628;1251;1004404;-80
2023/09/17 00:57:34;;;;;;;15.30;11.50;;;;;;;-128.00;-1.00;-1.00;105641;1250;1004684;-80
2023/09/17 01:00:08;;;;;;;15.60;10.90;;;;;;;-128.00;-1.00;-1.00;105606;1250;1004213;-79
2023/09/17 01:02:36;;;;;;;14.90;10.80;;;;;;;-128.00;-1.00;-1.00;105549;1251;1059811;-80
2023/09/17 01:05:04;;;;;;;15.20;11.50;;;;;;;-128.00;-1.00;-1.00;105402;1253;1004477;-80
2023/09/17 01:07:31;;;;;;;17.40;11.40;;;;;;;-128.00;-1.00;-1.00;105273;1253;1004129;-80
2023/09/17 01:09:58;;;;;;;16.10;11.00;;;;;;;-128.00;-1.00;-1.00;105182;1252;1004703;-79
2023/09/17 01:12:26;;;;;;;17.50;12.90;;;;;;;-128.00;-1.00;-1.00;105531;1252;1004271;-80
2023/09/17 01:14:54;;;;;;;15.70;11.90;;;;;;;-128.00;-1.00;-1.00;105360;1253;1004778;-80
2023/09/17 01:17:22;;;;;;;19.50;12.80;;;;;;;-128.00;-1.00;-1.00;105522;1253;1004049;-79
2023/09/17 01:19:48;;;;;;;21.20;13.20;;;;;;;-128.00;-1.00;-1.00;105535;1252;1003529;-80
2023/09/17 01:22:29;;;;;;;19.00;13.40;;;;;;;-128.00;-1.00;-1.00;105538;1254;1004182;-81
2023/09/17 01:25:06;;;;;;;14.40;11.70;;;;;;;-128.00;-1.00;-1.00;105390;1254;1058144;-80
2023/09/17 01:27:33;;;;;;;14.00;10.80;;;;;;;-128.00;-1.00;-1.00;105529;1252;1059671;-79
2023/09/17 01:29:59;;;;;;;13.50;10.60;;;;;;;-128.00;-1.00;-1.00;105533;1253;1003800;-79
2023/09/17 01:32:26;;;;;;;16.10;11.50;;;;;;;-128.00;-1.00;-1.00;105549;1253;1003758;-79
2023/09/17 01:34:53;;;;;;;16.10;11.80;;;;;;;-128.00;-1.00;-1.00;105384;1254;1004765;-80
2023/09/17 01:37:25;;;;;;;26.00;11.90;;;;;;;-128.00;-1.00;-1.00;105573;1252;1004286;-80
2023/09/17 01:39:56;;;;;;;14.00;10.80;;;;;;;-128.00;-1.00;-1.00;105538;1252;1058828;-80
2023/09/17 01:42:23;;;;;;;14.40;11.40;;;;;;;-128.00;-1.00;-1.00;105528;1253;1046099;-80
2023/09/17 01:44:49;;;;;;;13.70;10.60;;;;;;;-128.00;-1.00;-1.00;105374;1253;1004916;-80
2023/09/17 01:47:16;;;;;;;16.60;11.40;;;;;;;-128.00;-1.00;-1.00;105522;1253;1004173;-79
2023/09/17 01:49:43;;;;;;;14.10;10.60;;;;;;;-128.00;-1.00;-1.00;105595;1250;1004816;-80
2023/09/17 01:52:10;;;;;;;13.70;11.00;;;;;;;-128.00;-1.00;-1.00;105397;1254;1004949;-80
2023/09/17 01:54:36;;;;;;;14.80;10.20;;;;;;;-128.00;-1.00;-1.00;105488;1250;1004980;-79
2023/09/17 01:57:03;;;;;;;15.20;11.20;;;;;;;-128.00;-1.00;-1.00;105616;1251;1003960;-79
2023/09/17 01:59:29;;;;;;;20.30;11.10;;;;;;;-128.00;-1.00;-1.00;105563;1250;1005034;-79
2023/09/17 02:01:55;;;;;;;17.90;11.80;;;;;;;-128.00;-1.00;-1.00;105583;1250;1004999;-80
2023/09/17 02:04:22;;;;;;;18.90;12.10;;;;;;;-128.00;-1.00;-1.00;105537;1250;1004791;-79
2023/09/17 02:06:53;;;;;;;16.00;11.80;;;;;;;-128.00;-1.00;-1.00;105524;1252;1004071;-79
2023/09/17 02:09:21;;;;;;;20.20;12.00;;;;;;;-128.00;-1.00;-1.00;105529;1253;1046983;-80
2023/09/17 02:11:49;;;;;;;15.30;10.80;;;;;;;-128.00;-1.00;-1.00;105551;1252;1004011;-79
2023/09/17 02:14:16;;;;;;;17.80;11.60;;;;;;;-128.00;-1.00;-1.00;105515;1253;1004000;-80
2023/09/17 02:16:43;;;;;;;18.00;11.50;;;;;;;-128.00;-1.00;-1.00;105402;1252;1004094;-79
2023/09/17 02:19:10;;;;;;;16.80;10.90;;;;;;;-128.00;-1.00;-1.00;105337;1253;1004672;-80
2023/09/17 02:21:36;;;;;;;16.10;11.40;;;;;;;-128.00;-1.00;-1.00;105540;1252;1004168;-80
2023/09/17 02:24:03;;;;;;;18.50;10.70;;;;;;;-128.00;-1.00;-1.00;105538;1251;1003967;-80
2023/09/17 02:26:30;;;;;;;13.90;11.80;;;;;;;-128.00;-1.00;-1.00;105530;1253;1004531;-80
2023/09/17 02:28:56;;;;;;;16.90;11.30;;;;;;;-128.00;-1.00;-1.00;105487;1251;1004343;-80
2023/09/17 02:31:22;;;;;;;25.80;12.30;;;;;;;-128.00;-1.00;-1.00;105503;1254;1005089;-80
2023/09/17 02:33:49;;;;;;;17.90;11.30;;;;;;;-128.00;-1.00;-1.00;105525;1253;1004157;-80
2023/09/17 02:36:15;;;;;;;18.20;11.90;;;;;;;-128.00;-1.00;-1.00;105516;1254;1004114;-80
2023/09/17 02:38:42;;;;;;;20.70;13.30;;;;;;;-128.00;-1.00;-1.00;105538;1254;1003628;-80
2023/09/17 02:41:08;;;;;;;18.80;13.10;;;;;;;-128.00;-1.00;-1.00;105511;1253;1004314;-79
2023/09/17 02:43:36;;;;;;;20.10;13.40;;;;;;;-128.00;-1.00;-1.00;105515;1253;1003945;-79
2023/09/17 02:46:03;;;;;;;17.50;12.50;;;;;;;-128.00;-1.00;-1.00;105498;1252;1004463;-79
2023/09/17 02:48:33;;;;;;;19.00;14.20;;;;;;;-128.00;-1.00;-1.00;105567;1250;1003688;-79
2023/09/17 02:51:01;;;;;;;22.20;13.70;;;;;;;-128.00;-1.00;-1.00;105473;1251;1058154;-79
2023/09/17 02:53:27;;;;;;;19.40;13.50;;;;;;;-128.00;-1.00;-1.00;105552;1251;1004349;-80
2023/09/17 02:55:54;;;;;;;20.80;12.90;;;;;;;-128.00;-1.00;-1.00;105588;1251;1004281;-79
2023/09/17 02:58:20;;;;;;;17.40;13.10;;;;;;;-128.00;-1.00;-1.00;105607;1250;1003989;-80
2023/09/17 03:00:47;;;;;;;17.40;12.70;;;;;;;-128.00;-1.00;-1.00;105440;1251;1004910;-79
2023/09/17 03:03:15;;;;;;;17.70;13.00;;;;;;;-128.00;-1.00;-1.00;105596;1251;1003356;-79
2023/09/17 03:05:48;;;;;;;15.10;11.00;;;;;;;-128.00;-1.00;-1.00;105513;1251;1003787;-80
2023/09/17 03:08:14;;;;;;;17.60;11.80;;;;;;;-128.00;-1.00;-1.00;105560;1252;1046700;-80
2023/09/17 03:10:44;;;;;;;18.80;13.10;;;;;;;-128.00;-1.00;-1.00;105343;1253;1004613;-80
2023/09/17 03:13:11;;;;;;;21.80;12.60;;;;;;;-128.00;-1.00;-1.00;105349;1252;1062291;-79
2023/09/17 03:15:37;;;;;;;16.60;11.00;;;;;;;-128.00;-1.00;-1.00;105499;1252;1004176;-79
2023/09/17 03:18:04;;;;;;;21.60;12.50;;;;;;;-128.00;-1.00;-1.00;105551;1253;1004380;-79
2023/09/17 03:20:33;;;;;;;17.30;11.80;;;;;;;-128.00;-1.00;-1.00;105539;1252;1003661;-80
2023/09/17 03:23:02;;;;;;;18.70;11.00;;;;;;;-128.00;-1.00;-1.00;105544;1252;1046898;-80
2023/09/17 03:25:31;;;;;;;20.00;12.10;;;;;;;-128.00;-1.00;-1.00;105586;1253;1061444;-79
2023/09/17 03:27:59;;;;;;;15.70;10.10;;;;;;;-128.00;-1.00;-1.00;105536;1254;1004049;-80
2023/09/17 03:30:26;;;;;;;17.90;11.70;;;;;;;-128.00;-1.00;-1.00;105581;1253;1059622;-80
2023/09/17 03:32:53;;;;;;;13.20;10.20;;;;;;;-128.00;-1.00;-1.00;105541;1253;1003432;-79
2023/09/17 03:35:19;;;;;;;13.80;10.80;;;;;;;-128.00;-1.00;-1.00;105540;1253;1005010;-79
2023/09/17 03:37:46;;;;;;;13.50;9.90;;;;;;;-128.00;-1.00;-1.00;105480;1254;1004560;-80
2023/09/17 03:40:14;;;;;;;12.10;9.50;;;;;;;-128.00;-1.00;-1.00;105502;1254;1003671;-79
2023/09/17 03:42:41;;;;;;;12.70;8.90;;;;;;;-128.00;-1.00;-1.00;105573;1254;1004400;-79
2023/09/17 03:45:10;;;;;;;11.70;8.90;;;;;;;-128.00;-1.00;-1.00;105535;1251;1004177;-79
2023/09/17 03:47:37;;;;;;;17.10;9.50;;;;;;;-128.00;-1.00;-1.00;105560;1254;1046957;-80
2023/09/17 03:50:04;;;;;;;14.20;9.90;;;;;;;-128.00;-1.00;-1.00;105650;1251;1004437;-80
2023/09/17 03:52:37;;;;;;;13.90;8.70;;;;;;;-128.00;-1.00;-1.00;105636;1250;1003999;-80
2023/09/17 03:55:07;;;;;;;11.90;8.90;;;;;;;-128.00;-1.00;-1.00;105470;1252;1058596;-80
2023/09/17 03:57:35;;;;;;;11.20;8.40;;;;;;;-128.00;-1.00;-1.00;105430;1252;1048000;-80
2023/09/17 04:00:06;;;;;;;11.20;8.30;;;;;;;-128.00;-1.00;-1.00;105649;1251;1003682;-80
2023/09/17 04:02:35;;;;;;;13.30;9.40;;;;;;;-128.00;-1.00;-1.00;105641;1251;1062532;-80
2023/09/17 04:05:12;;;;;;;14.10;8.80;;;;;;;-128.00;-1.00;-1.00;105584;1254;1059451;-80
2023/09/17 04:07:40;;;;;;;13.30;9.60;;;;;;;-128.00;-1.00;-1.00;105553;1252;1059446;-80
2023/09/17 04:10:07;;;;;;;15.00;9.50;;;;;;;-128.00;-1.00;-1.00;105374;1253;1004130;-80
2023/09/17 04:12:34;;;;;;;14.00;8.70;;;;;;;-128.00;-1.00;-1.00;105291;1255;1003429;-80
2023/09/17 04:15:02;;;;;;;13.90;9.60;;;;;;;-128.00;-1.00;-1.00;105536;1254;1004558;-80
2023/09/17 04:17:29;;;;;;;13.20;9.00;;;;;;;-128.00;-1.00;-1.00;105532;1254;1057492;-80
2023/09/17 04:19:55;;;;;;;13.50;9.10;;;;;;;-128.00;-1.00;-1.00;105541;1253;1004990;-80
2023/09/17 04:22:22;;;;;;;10.00;8.30;;;;;;;-128.00;-1.00;-1.00;105543;1253;1004920;-80
2023/09/17 04:24:48;;;;;;;10.80;8.90;;;;;;;-128.00;-1.00;-1.00;105542;1253;1003948;-79
2023/09/17 04:27:16;;;;;;;15.10;8.80;;;;;;;-128.00;-1.00;-1.00;105582;1253;1003816;-79
2023/09/17 04:29:42;;;;;;;14.80;9.20;;;;;;;-128.00;-1.00;-1.00;105536;1253;1004675;-80
2023/09/17 04:32:09;;;;;;;13.80;9.10;;;;;;;-128.00;-1.00;-1.00;105552;1254;1003912;-80
2023/09/17 04:34:35;;;;;;;13.40;9.60;;;;;;;-128.00;-1.00;-1.00;105542;1253;1003424;-80
2023/09/17 04:37:02;;;;;;;13.50;9.70;;;;;;;-128.00;-1.00;-1.00;105528;1251;1005393;-80
2023/09/17 04:39:28;;;;;;;14.90;9.40;;;;;;;-128.00;-1.00;-1.00;105582;1252;1003707;-80
2023/09/17 04:41:55;;;;;;;14.00;8.70;;;;;;;-128.00;-1.00;-1.00;105525;1251;1004469;-79
2023/09/17 04:44:21;;;;;;;14.60;9.70;;;;;;;-128.00;-1.00;-1.00;105498;1253;1004530;-80
2023/09/17 04:46:48;;;;;;;15.20;10.00;;;;;;;-128.00;-1.00;-1.00;105410;1253;1005120;-79
2023/09/17 04:49:14;;;;;;;11.60;8.70;;;;;;;-128.00;-1.00;-1.00;105543;1251;1003783;-80
2023/09/17 04:51:41;;;;;;;12.20;9.10;;;;;;;-128.00;-1.00;-1.00;105556;1251;1003489;-80
2023/09/17 04:54:07;;;;;;;11.80;9.00;;;;;;;-128.00;-1.00;-1.00;105585;1251;1003967;-79
2023/09/17 04:56:35;;;;;;;11.20;8.80;;;;;;;-128.00;-1.00;-1.00;105575;1253;1004066;-79
2023/09/17 04:59:02;;;;;;;12.10;9.70;;;;;;;-128.00;-1.00;-1.00;105537;1251;1005116;-79
2023/09/17 05:01:29;;;;;;;13.70;9.00;;;;;;;-128.00;-1.00;-1.00;105546;1251;1004873;-80
2023/09/17 05:03:55;;;;;;;12.20;9.20;;;;;;;-128.00;-1.00;-1.00;105582;1251;1004891;-80
2023/09/17 05:06:22;;;;;;;13.00;9.80;;;;;;;-128.00;-1.00;-1.00;105512;1252;1004696;-80
2023/09/17 05:08:48;;;;;;;12.50;10.00;;;;;;;-128.00;-1.00;-1.00;105522;1253;1003937;-79
2023/09/17 05:11:15;;;;;;;12.80;9.00;;;;;;;-128.00;-1.00;-1.00;105536;1253;1003491;-80
2023/09/17 05:13:41;;;;;;;10.20;7.80;;;;;;;-128.00;-1.00;-1.00;105327;1254;1005035;-80
2023/09/17 05:16:08;;;;;;;12.30;8.30;;;;;;;-128.00;-1.00;-1.00;105637;1253;1003660;-80
2023/09/17 05:18:34;;;;;;;12.60;9.10;;;;;;;-128.00;-1.00;-1.00;105609;1254;1003832;-80
2023/09/17 05:21:01;;;;;;;13.70;8.30;;;;;;;-128.00;-1.00;-1.00;105172;1253;1003548;-80
2023/09/17 05:23:27;;;;;;;10.10;8.00;;;;;;;-128.00;-1.00;-1.00;105493;1254;1003772;-81
2023/09/17 05:25:55;;;;;;;10.20;7.80;;;;;;;-128.00;-1.00;-1.00;105529;1252;1003501;-80
2023/09/17 05:28:21;;;;;;;8.60;6.50;;;;;;;-128.00;-1.00;-1.00;105501;1253;1003572;-80
2023/09/17 05:30:48;;;;;;;9.60;7.30;;;;;;;-128.00;-1.00;-1.00;105520;1254;1004625;-80
2023/09/17 05:33:14;;;;;;;9.70;6.40;;;;;;;-128.00;-1.00;-1.00;105566;1252;1003733;-80
2023/09/17 05:35:41;;;;;;;8.50;5.90;;;;;;;-128.00;-1.00;-1.00;105524;1254;1004133;-80
2023/09/17 05:38:07;;;;;;;7.30;6.50;;;;;;;-128.00;-1.00;-1.00;105276;1253;1004918;-80
2023/09/17 05:40:34;;;;;;;10.80;6.60;;;;;;;-128.00;-1.00;-1.00;105498;1254;1004734;-79
2023/09/17 05:43:00;;;;;;;9.50;7.20;;;;;;;-128.00;-1.00;-1.00;105550;1253;1004118;-80
2023/09/17 05:45:27;;;;;;;8.90;6.60;;;;;;;-128.00;-1.00;-1.00;105559;1253;1004788;-80
2023/09/17 05:47:53;;;;;;;8.90;7.40;;;;;;;-128.00;-1.00;-1.00;105580;1253;1005009;-80
2023/09/17 05:50:20;;;;;;;8.50;6.80;;;;;;;-128.00;-1.00;-1.00;105603;1251;1003944;-80
2023/09/17 05:52:46;;;;;;;8.30;7.10;;;;;;;-128.00;-1.00;-1.00;105625;1251;1004250;-80
2023/09/17 05:55:12;;;;;;;9.10;7.50;;;;;;;-128.00;-1.00;-1.00;105604;1251;1004605;-80
2023/09/17 05:57:39;;;;;;;13.20;7.20;;;;;;;-128.00;-1.00;-1.00;105607;1251;1004562;-80
2023/09/17 06:00:07;;;;;;;10.20;8.10;;;;;;;-128.00;-1.00;-1.00;105553;1251;1003940;-80
2023/09/17 06:02:34;;;;;;;12.20;8.60;;;;;;;-128.00;-1.00;-1.00;105632;1251;1004435;-80
2023/09/17 06:05:00;;;;;;;9.80;8.30;;;;;;;-128.00;-1.00;-1.00;105560;1251;1004579;-80
2023/09/17 06:07:26;;;;;;;10.70;8.00;;;;;;;-128.00;-1.00;-1.00;105568;1253;1004015;-80
2023/09/17 06:09:53;;;;;;;11.20;7.30;;;;;;;-128.00;-1.00;-1.00;105570;1252;1004907;-80
2023/09/17 06:12:19;;;;;;;14.80;8.30;;;;;;;-128.00;-1.00;-1.00;105565;1254;1003998;-80
2023/09/17 06:14:46;;;;;;;8.00;6.70;;;;;;;-128.00;-1.00;-1.00;105533;1254;1004102;-80
2023/09/17 06:17:12;;;;;;;7.40;6.30;;;;;;;-128.00;-1.00;-1.00;105573;1253;1003981;-80
2023/09/17 06:19:38;;;;;;;11.10;6.10;;;;;;;-128.00;-1.00;-1.00;105551;1253;1003390;-80
2023/09/17 06:22:05;;;;;;;9.60;7.10;;;;;;;-128.00;-1.00;-1.00;105534;1253;1004144;-80
2023/09/17 06:24:32;;;;;;;12.70;6.90;;;;;;;-128.00;-1.00;-1.00;105501;1253;1003510;-80
2023/09/17 06:26:58;;;;;;;10.90;7.90;;;;;;;-128.00;-1.00;-1.00;105570;1253;1004891;-80
2023/09/17 06:29:25;;;;;;;14.10;10.10;;;;;;;-128.00;-1.00;-1.00;105562;1254;1003986;-80
2023/09/17 06:31:51;;;;;;;12.30;8.90;;;;;;;-128.00;-1.00;-1.00;105559;1254;1003541;-80
2023/09/17 06:34:18;;;;;;;11.60;8.90;;;;;;;-128.00;-1.00;-1.00;105512;1253;1004073;-80
2023/09/17 06:36:44;;;;;;;10.80;8.50;;;;;;;-128.00;-1.00;-1.00;105563;1255;1004129;-80
2023/09/17 06:39:12;;;;;;;10.60;8.10;;;;;;;-128.00;-1.00;-1.00;105370;1253;1004150;-80
2023/09/17 06:41:39;;;;;;;9.40;7.40;;;;;;;-128.00;-1.00;-1.00;105363;1253;1004507;-80
2023/09/17 06:44:05;;;;;;;11.30;7.70;;;;;;;-128.00;-1.00;-1.00;105582;1252;1003818;-80
2023/09/17 06:46:32;;;;;;;10.10;7.90;;;;;;;-128.00;-1.00;-1.00;105551;1253;1004126;-80
2023/09/17 06:48:58;;;;;;;12.00;7.70;;;;;;;-128.00;-1.00;-1.00;105618;1251;1004711;-80
2023/09/17 06:51:25;;;;;;;9.90;8.60;;;;;;;-128.00;-1.00;-1.00;105434;1252;1005611;-80
2023/09/17 06:53:51;;;;;;;10.60;7.70;;;;;;;-128.00;-1.00;-1.00;105598;1251;1005321;-80
2023/09/17 06:56:18;;;;;;;8.70;7.30;;;;;;;-128.00;-1.00;-1.00;105628;1251;1004377;-80
2023/09/17 06:58:45;;;;;;;8.60;6.80;;;;;;;-128.00;-1.00;-1.00;105438;1251;1003805;-80
2023/09/17 07:01:12;;;;;;;9.70;8.00;;;;;;;-128.00;-1.00;-1.00;105640;1251;1003901;-80
2023/09/17 07:03:38;;;;;;;8.20;6.40;;;;;;;-128.00;-1.00;-1.00;105616;1251;1005066;-81
2023/09/17 07:06:05;;;;;;;9.50;6.60;;;;;;;-128.00;-1.00;-1.00;105532;1255;1003919;-80
2023/09/17 07:08:32;;;;;;;9.00;5.40;;;;;;;-128.00;-1.00;-1.00;105590;1254;1005439;-81
2023/09/17 07:10:59;;;;;;;11.50;6.00;;;;;;;-128.00;-1.00;-1.00;105528;1254;1004139;-80
2023/09/17 07:13:25;;;;;;;7.30;5.80;;;;;;;-128.00;-1.00;-1.00;105498;1256;1004452;-80
2023/09/17 07:15:51;;;;;;;7.90;5.20;;;;;;;-128.00;-1.00;-1.00;105531;1254;1003845;-81
2023/09/17 07:18:18;;;;;;;6.80;5.30;;;;;;;-128.00;-1.00;-1.00;105562;1253;1003947;-81
2023/09/17 07:20:45;;;;;;;7.20;5.00;;;;;;;-128.00;-1.00;-1.00;105534;1254;1004014;-81
2023/09/17 07:23:12;;;;;;;5.90;4.90;;;;;;;-128.00;-1.00;-1.00;105550;1253;1004830;-82
2023/09/17 07:25:38;;;;;;;8.50;4.40;;;;;;;-128.00;-1.00;-1.00;105530;1254;1004122;-81
2023/09/17 07:28:07;;;;;;;5.20;4.40;;;;;;;-128.00;-1.00;-1.00;105566;1253;1004064;-81
2023/09/17 07:30:37;;;;;;;;;;;;;;;-128.00;-1.00;-1.00;105527;1254;1061969;-81
2023/09/17 07:33:04;;;;;;;8.30;4.70;;;;;;;-128.00;-1.00;-1.00;105500;1253;1057290;-81
2023/09/17 07:35:34;;;;;;;5.10;4.00;;;;;;;-128.00;-1.00;-1.00;105557;1254;1003487;-81
2023/09/17 07:38:01;;;;;;;5.20;4.30;;;;;;;-128.00;-1.00;-1.00;105481;1252;1046469;-82
2023/09/17 07:40:27;;;;;;;4.80;4.00;;;;;;;-128.00;-1.00;-1.00;105517;1254;1004299;-82
2023/09/17 07:42:54;;;;;;;5.40;4.00;;;;;;;-128.00;-1.00;-1.00;105577;1254;1004255;-82
2023/09/17 07:45:20;;;;;;;6.20;3.90;;;;;;;-128.00;-1.00;-1.00;105499;1254;1004519;-81
2023/09/17 07:47:47;;;;;;;4.50;3.70;;;;;;;-128.00;-1.00;-1.00;105542;1253;1005342;-82
2023/09/17 07:50:13;;;;;;;6.10;4.80;;;;;;;-128.00;-1.00;-1.00;105609;1251;1004561;-81
2023/09/17 07:52:40;;;;;;;6.40;4.60;;;;;;;-128.00;-1.00;-1.00;105618;1251;1004121;-82
2023/09/17 07:55:08;;;;;;;7.00;3.90;;;;;;;-128.00;-1.00;-1.00;105577;1251;1004248;-81
2023/09/17 07:57:34;;;;;;;8.90;4.80;;;;;;;-128.00;-1.00;-1.00;105628;1251;1004910;-81
2023/09/17 08:00:01;;;;;;;7.60;4.40;;;;;;;-128.00;-1.00;-1.00;105584;1251;1003285;-81
2023/09/17 08:02:28;;;;;;;6.00;4.40;;;;;;;-128.00;-1.00;-1.00;105595;1251;1004269;-81
2023/09/17 08:04:55;;;;;;;6.10;4.40;;;;;;;-128.00;-1.00;-1.00;105548;1252;1004421;-81
2023/09/17 08:07:21;;;;;;;5.30;4.40;;;;;;;-128.00;-1.00;-1.00;105543;1254;1003472;-82
2023/09/17 08:09:48;;;;;;;4.90;4.20;;;;;;;-128.00;-1.00;-1.00;105564;1254;1003460;-81
2023/09/17 08:12:14;;;;;;;6.20;3.30;;;;;;;-128.00;-1.00;-1.00;105515;1254;1004009;-81
2023/09/17 08:14:46;;;;;;;4.00;3.30;;;;;;;-128.00;-1.00;-1.00;105524;1254;1004216;-82
2023/09/17 08:17:13;;;;;;;4.10;3.70;;;;;;;-128.00;-1.00;-1.00;105573;1253;1046997;-82
2023/09/17 08:19:39;;;;;;;4.00;3.10;;;;;;;-128.00;-1.00;-1.00;105529;1254;1004183;-82
2023/09/17 08:22:06;;;;;;;6.70;3.80;;;;;;;-128.00;-1.00;-1.00;105405;1253;1004344;-82
2023/09/17 08:24:32;;;;;;;5.90;3.70;;;;;;;-128.00;-1.00;-1.00;105541;1254;1004275;-82
2023/09/17 08:26:59;;;;;;;6.10;3.80;;;;;;;-128.00;-1.00;-1.00;105452;1254;1003870;-82
2023/09/17 08:29:25;;;;;;;4.10;3.50;;;;;;;-128.00;-1.00;-1.00;105576;1253;1004430;-81
2023/09/17 08:31:52;;;;;;;5.20;3.50;;;;;;;-128.00;-1.00;-1.00;105593;1255;1004047;-81
2023/09/17 08:34:18;;;;;;;5.30;4.10;;;;;;;-128.00;-1.00;-1.00;105551;1254;1004815;-81
2023/09/17 08:36:45;;;;;;;5.10;4.40;;;;;;;-128.00;-1.00;-1.00;105536;1253;1004465;-82
2023/09/17 08:39:12;;;;;;;4.50;3.60;;;;;;;-128.00;-1.00;-1.00;105563;1253;1004693;-82
2023/09/17 08:41:40;;;;;;;5.20;3.20;;;;;;;-128.00;-1.00;-1.00;105563;1254;1003611;-82
2023/09/17 08:44:06;;;;;;;;;;;;;;;-128.00;-1.00;-1.00;105558;1252;1004854;-82
2023/09/17 08:46:33;;;;;;;9.20;3.60;;;;;;;-128.00;-1.00;-1.00;105475;1254;1003301;-82
2023/09/17 08:49:01;;;;;;;4.30;3.00;;;;;;;-128.00;-1.00;-1.00;105329;1253;1004695;-82
2023/09/17 08:51:28;;;;;;;;;;;;;;;-128.00;-1.00;-1.00;105419;1256;1004188;-81
2023/09/17 08:54:06;;;;;;;5.10;2.30;;;;;;;-128.00;-1.00;-1.00;105582;1251;1003984;-82
2023/09/17 08:56:34;;;;;;;4.00;2.40;;;;;;;-128.00;-1.00;-1.00;105596;1251;1061684;-81
2023/09/17 08:59:03;;;;;;;3.00;2.60;;;;;;;-128.00;-1.00;-1.00;105680;1251;1004051;-81
2023/09/17 09:01:30;;;;;;;5.80;3.10;;;;;;;-128.00;-1.00;-1.00;105588;1251;1060870;-81
2023/09/17 09:03:56;;;;;;;3.60;2.80;;;;;;;-128.00;-1.00;-1.00;105427;1251;1004395;-81
2023/09/17 09:06:24;;;;;;;5.10;3.00;;;;;;;-128.00;-1.00;-1.00;105468;1256;1003998;-82
2023/09/17 09:08:52;;;;;;;6.10;3.30;;;;;;;-128.00;-1.00;-1.00;105391;1253;1003749;-81
2023/09/17 09:11:19;;;;;;;4.30;2.60;;;;;;;-128.00;-1.00;-1.00;105537;1254;1003579;-82
2023/09/17 09:13:46;;;;;;;5.70;3.20;;;;;;;-128.00;-1.00;-1.00;105519;1254;1004520;-81
2023/09/17 09:16:13;;;;;;;7.10;4.30;;;;;;;-128.00;-1.00;-1.00;105550;1254;1003937;-81
2023/09/17 09:18:40;;;;;;;6.30;3.30;;;;;;;-128.00;-1.00;-1.00;105364;1252;1004852;-81
2023/09/17 09:21:08;;;;;;;7.20;2.80;;;;;;;-128.00;-1.00;-1.00;105371;1259;1004885;-81
2023/09/17 09:23:35;;;;;;;4.20;3.70;;;;;;;-128.00;-1.00;-1.00;105531;1252;1004721;-81
2023/09/17 09:26:03;;;;;;;3.70;2.80;;;;;;;-128.00;-1.00;-1.00;105557;1254;1003574;-81
2023/09/17 09:28:31;;;;;;;3.80;2.50;;;;;;;-128.00;-1.00;-1.00;105532;1257;1004072;-81
2023/09/17 09:30:57;;;;;;;4.90;2.80;;;;;;;-128.00;-1.00;-1.00;105570;1254;1004273;-81
2023/09/17 09:33:24;;;;;;;4.30;2.80;;;;;;;-128.00;-1.00;-1.00;105369;1254;1004329;-81
2023/09/17 09:35:51;;;;;;;4.50;2.70;;;;;;;-128.00;-1.00;-1.00;105376;1254;1004473;-81
2023/09/17 09:38:21;;;;;;;4.90;2.00;;;;;;;-128.00;-1.00;-1.00;105475;1254;1003876;-81
2023/09/17 09:40:47;;;;;;;4.30;2.50;;;;;;;-128.00;-1.00;-1.00;105345;1254;1044915;-82
2023/09/17 09:43:28;;;;;;;4.10;2.10;;;;;;;-128.00;-1.00;-1.00;105396;1253;1004156;-82
2023/09/17 09:45:56;;;;;;;3.10;2.30;;;;;;;-128.00;-1.00;-1.00;105545;1256;1062816;-81
2023/09/17 09:48:22;;;;;;;3.00;2.20;;;;;;;-128.00;-1.00;-1.00;105433;1256;1003984;-81
2023/09/17 09:50:51;;;;;;;2.40;2.00;;;;;;;-128.00;-1.00;-1.00;105525;1251;1004717;-81
2023/09/17 09:53:18;;;;;;;2.70;2.30;;;;;;;-128.00;-1.00;-1.00;105563;1251;1045535;-81
2023/09/17 09:55:46;;;;;;;4.40;2.90;;;;;;;-128.00;-1.00;-1.00;105453;1256;1005065;-81
2023/09/17 09:58:14;;;;;;;3.90;2.90;;;;;;;-128.00;-1.00;-1.00;105361;1252;1004275;-81
2023/09/17 10:00:44;;;;;;;3.50;2.40;;;;;;;-128.00;-1.00;-1.00;105468;1251;1003885;-81
2023/09/17 10:03:17;;;;;;;5.90;2.30;;;;;;;-128.00;-1.00;-1.00;105600;1251;1059804;-81
2023/09/17 10:05:44;;;;;;;3.10;2.20;;;;;;;-128.00;-1.00;-1.00;105425;1254;1044687;-81
2023/09/17 10:08:12;;;;;;;2.60;2.30;;;;;;;-128.00;-1.00;-1.00;105548;1251;1004453;-81
2023/09/17 10:10:39;;;;;;;2.70;2.40;;;;;;;-128.00;-1.00;-1.00;105608;1254;1003870;-81
2023/09/17 10:13:06;;;;;;;4.30;2.80;;;;;;;-128.00;-1.00;-1.00;105388;1254;1004252;-81
2023/09/17 10:15:34;;;;;;;4.20;2.30;;;;;;;-128.00;-1.00;-1.00;105388;1253;1004702;-81
2023/09/17 10:18:00;;;;;;;3.40;2.30;;;;;;;-128.00;-1.00;-1.00;105559;1254;1003970;-81
2023/09/17 10:20:27;;;;;;;3.70;2.50;;;;;;;-128.00;-1.00;-1.00;105581;1254;1003630;-81
2023/09/17 10:22:54;;;;;;;3.50;2.40;;;;;;;-128.00;-1.00;-1.00;105412;1252;1004885;-81
2023/09/17 10:25:21;;;;;;;2.70;2.30;;;;;;;-128.00;-1.00;-1.00;105342;1254;1004475;-81
2023/09/17 10:27:49;;;;;;;2.90;2.20;;;;;;;-128.00;-1.00;-1.00;105544;1254;1004729;-81
2023/09/17 10:30:16;;;;;;;3.60;2.50;;;;;;;-128.00;-1.00;-1.00;105372;1254;1044763;-81
2023/09/17 10:32:42;;;;;;;3.00;2.00;;;;;;;-128.00;-1.00;-1.00;105546;1253;1004191;-81
2023/09/17 10:35:09;;;;;;;5.50;2.70;;;;;;;-128.00;-1.00;-1.00;105337;1253;1004560;-81
2023/09/17 10:37:36;;;;;;;5.20;2.30;;;;;;;-128.00;-1.00;-1.00;105399;1253;1003818;-81
2023/09/17 10:40:08;;;;;;;7.60;2.80;;;;;;;-128.00;-1.00;-1.00;105372;1254;1004689;-81
2023/09/17 10:42:34;;;;;;;3.40;2.60;;;;;;;-128.00;-1.00;-1.00;105396;1254;1044137;-81
2023/09/17 10:45:01;;;;;;;3.30;2.40;;;;;;;-128.00;-1.00;-1.00;105541;1253;1004255;-81
2023/09/17 10:47:27;;;;;;;3.00;2.70;;;;;;;-128.00;-1.00;-1.00;105483;1254;1004377;-81
2023/09/17 10:49:54;;;;;;;4.80;2.90;;;;;;;-128.00;-1.00;-1.00;105541;1254;1003707;-81
2023/09/17 10:52:20;;;;;;;3.30;2.50;;;;;;;-128.00;-1.00;-1.00;105595;1251;1004487;-81
2023/09/17 10:54:47;;;;;;;5.40;3.10;;;;;;;-128.00;-1.00;-1.00;105613;1251;1003636;-81
2023/09/17 10:57:21;;;;;;;4.10;3.40;;;;;;;-128.00;-1.00;-1.00;105542;1250;1005262;-81
2023/09/17 10:59:48;;;;;;;6.60;4.50;;;;;;;-128.00;-1.00;-1.00;105613;1251;1061825;-81
2023/09/17 11:02:14;;;;;;;3.80;2.90;;;;;;;-128.00;-1.00;-1.00;105756;1251;1003962;-81
2023/09/17 11:04:41;;;;;;;5.80;3.20;;;;;;;-128.00;-1.00;-1.00;105533;1251;1004734;-81
2023/09/17 11:07:07;;;;;;;5.70;3.10;;;;;;;-128.00;-1.00;-1.00;105405;1251;1004288;-81
2023/09/17 11:09:34;;;;;;;6.00;4.20;;;;;;;-128.00;-1.00;-1.00;105588;1251;1004322;-81
2023/09/17 11:12:01;;;;;;;5.60;3.40;;;;;;;-128.00;-1.00;-1.00;105502;1251;1004269;-81